sensor_id;sensor_type;location;lat;lon;timestamp;P1;durP1;ratioP1;P2;durP2;ratioP2
68438;SDS011;55421;51.600;5.718;2023-04-25T00:01:21;7.70;;;3.30;;
68438;SDS011;55421;51.600;5.718;2023-04-25T00:03:48;11.80;;;4.10;;
68438;SDS011;55421;51.600;5.718;2023-04-25T00:06:15;7.90;;;3.70;;
68438;SDS011;55421;51.600;5.718;2023-04-25T00:08:41;8.20;;;3.50;;
68438;SDS011;55421;51.600;5.718;2023-04-25T00:11:08;12.00;;;3.80;;
68438;SDS011;55421;51.600;5.718;2023-04-25T00:13:34;11.50;;;3.80;;
68438;SDS011;55421;51.600;5.718;2023-04-25T00:16:01;8.10;;;3.20;;
68438;SDS011;55421;51.600;5.718;2023-04-25T00:18:28;10.50;;;3.30;;
68438;SDS011;55421;51.600;5.718;2023-04-25T00:20:55;6.30;;;3.00;;
68438;SDS011;55421;51.600;5.718;2023-04-25T00:23:22;10.70;;;3.10;;
68438;SDS011;55421;51.600;5.718;2023-04-25T00:25:49;5.90;;;3.10;;
68438;SDS011;55421;51.600;5.718;2023-04-25T00:28:16;8.90;;;3.20;;
68438;SDS011;55421;51.600;5.718;2023-04-25T00:30:43;11.00;;;3.90;;
68438;SDS011;55421;51.600;5.718;2023-04-25T00:33:09;11.20;;;3.50;;
68438;SDS011;55421;51.600;5.718;2023-04-25T00:35:36;9.30;;;3.00;;
68438;SDS011;55421;51.600;5.718;2023-04-25T00:38:02;13.60;;;3.30;;
68438;SDS011;55421;51.600;5.718;2023-04-25T00:40:29;5.90;;;3.00;;
68438;SDS011;55421;51.600;5.718;2023-04-25T00:42:55;7.90;;;3.50;;
68438;SDS011;55421;51.600;5.718;2023-04-25T00:45:27;8.90;;;3.10;;
68438;SDS011;55421;51.600;5.718;2023-04-25T00:47:58;11.00;;;3.10;;
68438;SDS011;55421;51.600;5.718;2023-04-25T00:50:25;9.60;;;3.40;;
68438;SDS011;55421;51.600;5.718;2023-04-25T00:52:52;7.50;;;3.50;;
68438;SDS011;55421;51.600;5.718;2023-04-25T00:55:19;10.10;;;3.30;;
68438;SDS011;55421;51.600;5.718;2023-04-25T00:57:46;14.10;;;3.80;;
68438;SDS011;55421;51.600;5.718;2023-04-25T01:00:13;14.70;;;4.20;;
68438;SDS011;55421;51.600;5.718;2023-04-25T01:02:41;13.00;;;3.40;;
68438;SDS011;55421;51.600;5.718;2023-04-25T01:05:08;7.00;;;2.90;;
68438;SDS011;55421;51.600;5.718;2023-04-25T01:07:35;9.40;;;3.40;;
68438;SDS011;55421;51.600;5.718;2023-04-25T01:10:02;10.40;;;3.70;;
68438;SDS011;55421;51.600;5.718;2023-04-25T01:12:29;7.40;;;3.10;;
68438;SDS011;55421;51.600;5.718;2023-04-25T01:14:55;8.40;;;3.50;;
68438;SDS011;55421;51.600;5.718;2023-04-25T01:17:22;9.30;;;3.50;;
68438;SDS011;55421;51.600;5.718;2023-04-25T01:19:50;13.20;;;3.30;;
68438;SDS011;55421;51.600;5.718;2023-04-25T01:22:17;10.00;;;3.40;;
68438;SDS011;55421;51.600;5.718;2023-04-25T01:24:43;8.40;;;3.40;;
68438;SDS011;55421;51.600;5.718;2023-04-25T01:27:10;8.80;;;3.20;;
68438;SDS011;55421;51.600;5.718;2023-04-25T01:29:37;10.70;;;2.90;;
68438;SDS011;55421;51.600;5.718;2023-04-25T01:32:05;18.10;;;4.20;;
68438;SDS011;55421;51.600;5.718;2023-04-25T01:34:32;14.10;;;3.90;;
68438;SDS011;55421;51.600;5.718;2023-04-25T01:37:00;7.10;;;2.90;;
68438;SDS011;55421;51.600;5.718;2023-04-25T01:39:27;12.00;;;3.50;;
68438;SDS011;55421;51.600;5.718;2023-04-25T01:41:54;10.50;;;3.30;;
68438;SDS011;55421;51.600;5.718;2023-04-25T01:44:24;8.90;;;3.10;;
68438;SDS011;55421;51.600;5.718;2023-04-25T01:46:50;6.80;;;3.20;;
68438;SDS011;55421;51.600;5.718;2023-04-25T01:49:17;8.20;;;3.50;;
68438;SDS011;55421;51.600;5.718;2023-04-25T01:51:43;14.90;;;3.70;;
68438;SDS011;55421;51.600;5.718;2023-04-25T01:54:10;9.80;;;3.30;;
68438;SDS011;55421;51.600;5.718;2023-04-25T01:56:37;11.70;;;3.00;;
68438;SDS011;55421;51.600;5.718;2023-04-25T01:59:05;9.30;;;3.30;;
68438;SDS011;55421;51.600;5.718;2023-04-25T02:01:32;8.40;;;2.90;;
68438;SDS011;55421;51.600;5.718;2023-04-25T02:03:59;10.90;;;3.20;;
68438;SDS011;55421;51.600;5.718;2023-04-25T02:06:26;9.70;;;3.40;;
68438;SDS011;55421;51.600;5.718;2023-04-25T02:08:52;15.10;;;3.70;;
68438;SDS011;55421;51.600;5.718;2023-04-25T02:11:19;16.30;;;3.30;;
68438;SDS011;55421;51.600;5.718;2023-04-25T02:13:45;9.60;;;3.30;;
68438;SDS011;55421;51.600;5.718;2023-04-25T02:16:11;7.90;;;3.60;;
68438;SDS011;55421;51.600;5.718;2023-04-25T02:18:39;15.50;;;3.70;;
68438;SDS011;55421;51.600;5.718;2023-04-25T02:21:05;12.90;;;3.40;;
68438;SDS011;55421;51.600;5.718;2023-04-25T02:23:32;12.80;;;3.60;;
68438;SDS011;55421;51.600;5.718;2023-04-25T02:25:59;11.90;;;3.50;;
68438;SDS011;55421;51.600;5.718;2023-04-25T02:28:25;11.30;;;3.50;;
68438;SDS011;55421;51.600;5.718;2023-04-25T02:30:52;14.50;;;3.90;;
68438;SDS011;55421;51.600;5.718;2023-04-25T02:33:19;16.70;;;3.70;;
68438;SDS011;55421;51.600;5.718;2023-04-25T02:35:47;10.10;;;3.10;;
68438;SDS011;55421;51.600;5.718;2023-04-25T02:38:14;11.80;;;3.40;;
68438;SDS011;55421;51.600;5.718;2023-04-25T02:40:41;16.20;;;4.10;;
68438;SDS011;55421;51.600;5.718;2023-04-25T02:43:07;8.50;;;3.20;;
68438;SDS011;55421;51.600;5.718;2023-04-25T02:45:34;18.30;;;4.00;;
68438;SDS011;55421;51.600;5.718;2023-04-25T02:48:02;11.70;;;3.60;;
68438;SDS011;55421;51.600;5.718;2023-04-25T02:50:29;12.40;;;3.80;;
68438;SDS011;55421;51.600;5.718;2023-04-25T02:52:56;18.00;;;3.80;;
68438;SDS011;55421;51.600;5.718;2023-04-25T02:55:22;13.30;;;3.70;;
68438;SDS011;55421;51.600;5.718;2023-04-25T02:57:49;11.50;;;3.90;;
68438;SDS011;55421;51.600;5.718;2023-04-25T03:00:15;17.00;;;5.10;;
68438;SDS011;55421;51.600;5.718;2023-04-25T03:02:42;15.40;;;4.40;;
68438;SDS011;55421;51.600;5.718;2023-04-25T03:05:08;14.30;;;4.10;;
68438;SDS011;55421;51.600;5.718;2023-04-25T03:07:35;10.90;;;3.90;;
68438;SDS011;55421;51.600;5.718;2023-04-25T03:10:01;12.00;;;4.40;;
68438;SDS011;55421;51.600;5.718;2023-04-25T03:12:28;12.60;;;3.90;;
68438;SDS011;55421;51.600;5.718;2023-04-25T03:14:55;20.90;;;4.30;;
68438;SDS011;55421;51.600;5.718;2023-04-25T03:17:21;12.10;;;3.90;;
68438;SDS011;55421;51.600;5.718;2023-04-25T03:19:47;13.90;;;4.30;;
68438;SDS011;55421;51.600;5.718;2023-04-25T03:22:14;12.10;;;3.90;;
68438;SDS011;55421;51.600;5.718;2023-04-25T03:24:41;17.30;;;4.10;;
68438;SDS011;55421;51.600;5.718;2023-04-25T03:27:07;15.30;;;4.40;;
68438;SDS011;55421;51.600;5.718;2023-04-25T03:29:33;16.30;;;4.00;;
68438;SDS011;55421;51.600;5.718;2023-04-25T03:32:00;14.00;;;4.20;;
68438;SDS011;55421;51.600;5.718;2023-04-25T03:34:27;14.90;;;4.00;;
68438;SDS011;55421;51.600;5.718;2023-04-25T03:36:54;10.40;;;3.80;;
68438;SDS011;55421;51.600;5.718;2023-04-25T03:39:21;12.80;;;4.20;;
68438;SDS011;55421;51.600;5.718;2023-04-25T03:41:48;10.80;;;3.80;;
68438;SDS011;55421;51.600;5.718;2023-04-25T03:44:15;10.20;;;3.60;;
68438;SDS011;55421;51.600;5.718;2023-04-25T03:46:41;16.80;;;3.90;;
68438;SDS011;55421;51.600;5.718;2023-04-25T03:49:08;11.60;;;4.10;;
68438;SDS011;55421;51.600;5.718;2023-04-25T03:51:34;10.20;;;3.70;;
68438;SDS011;55421;51.600;5.718;2023-04-25T03:54:01;9.70;;;4.20;;
68438;SDS011;55421;51.600;5.718;2023-04-25T03:56:27;11.20;;;3.60;;
68438;SDS011;55421;51.600;5.718;2023-04-25T03:58:54;16.60;;;4.30;;
68438;SDS011;55421;51.600;5.718;2023-04-25T04:01:20;12.80;;;4.50;;
68438;SDS011;55421;51.600;5.718;2023-04-25T04:03:47;12.60;;;4.00;;
68438;SDS011;55421;51.600;5.718;2023-04-25T04:06:13;15.60;;;3.90;;
68438;SDS011;55421;51.600;5.718;2023-04-25T04:08:41;10.70;;;4.00;;
68438;SDS011;55421;51.600;5.718;2023-04-25T04:11:07;14.10;;;4.00;;
68438;SDS011;55421;51.600;5.718;2023-04-25T04:13:33;9.80;;;3.70;;
68438;SDS011;55421;51.600;5.718;2023-04-25T04:16:00;11.70;;;4.30;;
68438;SDS011;55421;51.600;5.718;2023-04-25T04:18:26;13.40;;;3.80;;
68438;SDS011;55421;51.600;5.718;2023-04-25T04:20:53;11.50;;;4.20;;
68438;SDS011;55421;51.600;5.718;2023-04-25T04:23:19;12.20;;;3.70;;
68438;SDS011;55421;51.600;5.718;2023-04-25T04:25:47;12.10;;;3.60;;
68438;SDS011;55421;51.600;5.718;2023-04-25T04:28:14;8.70;;;3.80;;
68438;SDS011;55421;51.600;5.718;2023-04-25T04:30:42;15.20;;;4.10;;
68438;SDS011;55421;51.600;5.718;2023-04-25T04:33:08;14.00;;;4.60;;
68438;SDS011;55421;51.600;5.718;2023-04-25T04:35:35;15.50;;;4.20;;
68438;SDS011;55421;51.600;5.718;2023-04-25T04:38:01;12.90;;;4.60;;
68438;SDS011;55421;51.600;5.718;2023-04-25T04:40:28;9.90;;;4.10;;
68438;SDS011;55421;51.600;5.718;2023-04-25T04:42:57;13.40;;;4.70;;
68438;SDS011;55421;51.600;5.718;2023-04-25T04:45:23;13.60;;;4.20;;
68438;SDS011;55421;51.600;5.718;2023-04-25T04:47:50;13.20;;;3.60;;
68438;SDS011;55421;51.600;5.718;2023-04-25T04:50:16;7.50;;;3.60;;
68438;SDS011;55421;51.600;5.718;2023-04-25T04:52:44;11.20;;;4.30;;
68438;SDS011;55421;51.600;5.718;2023-04-25T04:55:10;13.80;;;3.90;;
68438;SDS011;55421;51.600;5.718;2023-04-25T04:57:37;11.10;;;3.80;;
68438;SDS011;55421;51.600;5.718;2023-04-25T05:00:05;9.50;;;3.30;;
68438;SDS011;55421;51.600;5.718;2023-04-25T05:02:37;11.20;;;3.30;;
68438;SDS011;55421;51.600;5.718;2023-04-25T05:05:05;19.90;;;4.30;;
68438;SDS011;55421;51.600;5.718;2023-04-25T05:07:32;10.90;;;3.70;;
68438;SDS011;55421;51.600;5.718;2023-04-25T05:09:59;12.80;;;4.10;;
68438;SDS011;55421;51.600;5.718;2023-04-25T05:12:25;15.20;;;4.40;;
68438;SDS011;55421;51.600;5.718;2023-04-25T05:14:52;11.10;;;4.10;;
68438;SDS011;55421;51.600;5.718;2023-04-25T05:17:18;12.90;;;4.70;;
68438;SDS011;55421;51.600;5.718;2023-04-25T05:19:45;8.50;;;3.70;;
68438;SDS011;55421;51.600;5.718;2023-04-25T05:22:11;11.40;;;3.80;;
68438;SDS011;55421;51.600;5.718;2023-04-25T05:24:38;12.10;;;4.10;;
68438;SDS011;55421;51.600;5.718;2023-04-25T05:27:05;12.00;;;4.00;;
68438;SDS011;55421;51.600;5.718;2023-04-25T05:29:31;17.40;;;3.90;;
68438;SDS011;55421;51.600;5.718;2023-04-25T05:31:58;15.70;;;4.10;;
68438;SDS011;55421;51.600;5.718;2023-04-25T05:34:24;13.70;;;4.00;;
68438;SDS011;55421;51.600;5.718;2023-04-25T05:36:51;12.70;;;3.90;;
68438;SDS011;55421;51.600;5.718;2023-04-25T05:39:17;10.60;;;3.70;;
68438;SDS011;55421;51.600;5.718;2023-04-25T05:41:44;15.40;;;5.50;;
68438;SDS011;55421;51.600;5.718;2023-04-25T05:44:10;11.60;;;3.90;;
68438;SDS011;55421;51.600;5.718;2023-04-25T05:46:37;8.20;;;3.90;;
68438;SDS011;55421;51.600;5.718;2023-04-25T05:49:03;13.80;;;5.60;;
68438;SDS011;55421;51.600;5.718;2023-04-25T05:51:30;11.50;;;4.30;;
68438;SDS011;55421;51.600;5.718;2023-04-25T05:53:57;16.20;;;4.30;;
68438;SDS011;55421;51.600;5.718;2023-04-25T05:56:24;16.10;;;4.20;;
68438;SDS011;55421;51.600;5.718;2023-04-25T05:58:51;8.40;;;3.90;;
68438;SDS011;55421;51.600;5.718;2023-04-25T06:01:17;17.80;;;4.50;;
68438;SDS011;55421;51.600;5.718;2023-04-25T06:03:43;14.30;;;3.50;;
68438;SDS011;55421;51.600;5.718;2023-04-25T06:06:11;14.80;;;4.20;;
68438;SDS011;55421;51.600;5.718;2023-04-25T06:08:38;10.20;;;3.70;;
68438;SDS011;55421;51.600;5.718;2023-04-25T06:11:04;13.40;;;3.50;;
68438;SDS011;55421;51.600;5.718;2023-04-25T06:13:31;10.70;;;3.60;;
68438;SDS011;55421;51.600;5.718;2023-04-25T06:15:58;16.30;;;4.10;;
68438;SDS011;55421;51.600;5.718;2023-04-25T06:18:24;14.40;;;3.40;;
68438;SDS011;55421;51.600;5.718;2023-04-25T06:20:50;8.80;;;3.60;;
68438;SDS011;55421;51.600;5.718;2023-04-25T06:23:17;8.80;;;2.80;;
68438;SDS011;55421;51.600;5.718;2023-04-25T06:25:44;10.90;;;3.90;;
68438;SDS011;55421;51.600;5.718;2023-04-25T06:28:10;8.50;;;3.20;;
68438;SDS011;55421;51.600;5.718;2023-04-25T06:30:36;13.00;;;4.30;;
68438;SDS011;55421;51.600;5.718;2023-04-25T06:33:03;7.10;;;3.60;;
68438;SDS011;55421;51.600;5.718;2023-04-25T06:35:29;15.40;;;3.80;;
68438;SDS011;55421;51.600;5.718;2023-04-25T06:37:56;19.60;;;4.80;;
68438;SDS011;55421;51.600;5.718;2023-04-25T06:40:22;15.10;;;4.40;;
68438;SDS011;55421;51.600;5.718;2023-04-25T06:42:49;8.40;;;3.60;;
68438;SDS011;55421;51.600;5.718;2023-04-25T06:45:16;13.80;;;4.00;;
68438;SDS011;55421;51.600;5.718;2023-04-25T06:47:42;10.70;;;3.90;;
68438;SDS011;55421;51.600;5.718;2023-04-25T06:50:09;10.80;;;3.20;;
68438;SDS011;55421;51.600;5.718;2023-04-25T06:52:37;7.20;;;2.40;;
68438;SDS011;55421;51.600;5.718;2023-04-25T06:55:03;10.60;;;3.20;;
68438;SDS011;55421;51.600;5.718;2023-04-25T06:57:32;11.80;;;3.70;;
68438;SDS011;55421;51.600;5.718;2023-04-25T06:59:58;14.20;;;3.60;;
68438;SDS011;55421;51.600;5.718;2023-04-25T07:02:24;10.70;;;3.00;;
68438;SDS011;55421;51.600;5.718;2023-04-25T07:04:51;9.00;;;3.20;;
68438;SDS011;55421;51.600;5.718;2023-04-25T07:07:17;7.90;;;2.90;;
68438;SDS011;55421;51.600;5.718;2023-04-25T07:09:44;11.20;;;3.00;;
68438;SDS011;55421;51.600;5.718;2023-04-25T07:12:10;9.60;;;3.00;;
68438;SDS011;55421;51.600;5.718;2023-04-25T07:14:37;11.50;;;3.40;;
68438;SDS011;55421;51.600;5.718;2023-04-25T07:17:03;7.50;;;2.60;;
68438;SDS011;55421;51.600;5.718;2023-04-25T07:19:33;7.20;;;2.50;;
68438;SDS011;55421;51.600;5.718;2023-04-25T07:21:59;8.90;;;2.90;;
68438;SDS011;55421;51.600;5.718;2023-04-25T07:24:26;4.60;;;2.30;;
68438;SDS011;55421;51.600;5.718;2023-04-25T07:26:53;9.00;;;3.00;;
68438;SDS011;55421;51.600;5.718;2023-04-25T07:29:19;5.90;;;2.70;;
68438;SDS011;55421;51.600;5.718;2023-04-25T07:31:46;6.40;;;3.00;;
68438;SDS011;55421;51.600;5.718;2023-04-25T07:34:12;10.50;;;3.20;;
68438;SDS011;55421;51.600;5.718;2023-04-25T07:36:39;5.80;;;2.50;;
68438;SDS011;55421;51.600;5.718;2023-04-25T07:39:06;8.50;;;2.80;;
68438;SDS011;55421;51.600;5.718;2023-04-25T07:41:32;22.00;;;3.30;;
68438;SDS011;55421;51.600;5.718;2023-04-25T07:43:59;8.00;;;2.30;;
68438;SDS011;55421;51.600;5.718;2023-04-25T07:46:25;7.80;;;2.10;;
68438;SDS011;55421;51.600;5.718;2023-04-25T07:48:52;12.40;;;2.60;;
68438;SDS011;55421;51.600;5.718;2023-04-25T07:51:18;5.20;;;2.10;;
68438;SDS011;55421;51.600;5.718;2023-04-25T07:53:45;8.60;;;1.80;;
68438;SDS011;55421;51.600;5.718;2023-04-25T07:56:12;5.80;;;1.80;;
68438;SDS011;55421;51.600;5.718;2023-04-25T07:58:38;10.90;;;2.30;;
68438;SDS011;55421;51.600;5.718;2023-04-25T08:01:05;3.80;;;1.50;;
68438;SDS011;55421;51.600;5.718;2023-04-25T08:03:31;9.30;;;2.20;;
68438;SDS011;55421;51.600;5.718;2023-04-25T08:05:58;8.70;;;2.10;;
68438;SDS011;55421;51.600;5.718;2023-04-25T08:08:24;9.00;;;2.10;;
68438;SDS011;55421;51.600;5.718;2023-04-25T08:10:51;9.80;;;1.70;;
68438;SDS011;55421;51.600;5.718;2023-04-25T08:13:17;5.30;;;1.80;;
68438;SDS011;55421;51.600;5.718;2023-04-25T08:15:44;11.10;;;2.20;;
68438;SDS011;55421;51.600;5.718;2023-04-25T08:18:10;9.00;;;1.60;;
68438;SDS011;55421;51.600;5.718;2023-04-25T08:20:37;9.80;;;2.00;;
68438;SDS011;55421;51.600;5.718;2023-04-25T08:23:03;4.20;;;1.60;;
68438;SDS011;55421;51.600;5.718;2023-04-25T08:25:30;4.80;;;1.70;;
68438;SDS011;55421;51.600;5.718;2023-04-25T08:27:56;8.80;;;1.80;;
68438;SDS011;55421;51.600;5.718;2023-04-25T08:30:25;8.10;;;1.80;;
68438;SDS011;55421;51.600;5.718;2023-04-25T08:32:53;8.10;;;1.60;;
68438;SDS011;55421;51.600;5.718;2023-04-25T08:35:19;4.40;;;1.20;;
68438;SDS011;55421;51.600;5.718;2023-04-25T08:37:46;11.50;;;2.20;;
68438;SDS011;55421;51.600;5.718;2023-04-25T08:40:14;3.80;;;1.40;;
68438;SDS011;55421;51.600;5.718;2023-04-25T08:42:42;4.60;;;1.70;;
68438;SDS011;55421;51.600;5.718;2023-04-25T08:45:09;6.80;;;1.20;;
68438;SDS011;55421;51.600;5.718;2023-04-25T08:47:38;4.30;;;1.20;;
68438;SDS011;55421;51.600;5.718;2023-04-25T08:50:06;8.00;;;1.30;;
68438;SDS011;55421;51.600;5.718;2023-04-25T08:52:37;6.70;;;1.80;;
68438;SDS011;55421;51.600;5.718;2023-04-25T08:55:09;8.10;;;1.50;;
68438;SDS011;55421;51.600;5.718;2023-04-25T08:57:40;3.40;;;1.30;;
68438;SDS011;55421;51.600;5.718;2023-04-25T09:00:10;6.40;;;1.80;;
68438;SDS011;55421;51.600;5.718;2023-04-25T09:02:39;8.90;;;1.50;;
68438;SDS011;55421;51.600;5.718;2023-04-25T09:05:06;4.60;;;1.90;;
68438;SDS011;55421;51.600;5.718;2023-04-25T09:07:32;6.80;;;1.80;;
68438;SDS011;55421;51.600;5.718;2023-04-25T09:09:59;4.60;;;1.50;;
68438;SDS011;55421;51.600;5.718;2023-04-25T09:12:29;6.10;;;2.20;;
68438;SDS011;55421;51.600;5.718;2023-04-25T09:15:12;3.20;;;1.30;;
68438;SDS011;55421;51.600;5.718;2023-04-25T09:17:41;6.30;;;1.50;;
68438;SDS011;55421;51.600;5.718;2023-04-25T09:20:12;2.50;;;1.00;;
68438;SDS011;55421;51.600;5.718;2023-04-25T09:22:40;5.90;;;1.70;;
68438;SDS011;55421;51.600;5.718;2023-04-25T09:25:10;7.80;;;1.50;;
68438;SDS011;55421;51.600;5.718;2023-04-25T09:27:53;7.50;;;1.80;;
68438;SDS011;55421;51.600;5.718;2023-04-25T09:30:29;8.70;;;2.30;;
68438;SDS011;55421;51.600;5.718;2023-04-25T09:33:03;14.30;;;2.00;;
68438;SDS011;55421;51.600;5.718;2023-04-25T09:35:36;6.60;;;1.70;;
68438;SDS011;55421;51.600;5.718;2023-04-25T09:38:09;6.70;;;2.20;;
68438;SDS011;55421;51.600;5.718;2023-04-25T09:40:43;10.60;;;2.40;;
68438;SDS011;55421;51.600;5.718;2023-04-25T09:43:24;7.00;;;2.30;;
68438;SDS011;55421;51.600;5.718;2023-04-25T09:45:53;1.90;;;1.40;;
68438;SDS011;55421;51.600;5.718;2023-04-25T09:48:24;2.70;;;1.30;;
68438;SDS011;55421;51.600;5.718;2023-04-25T09:51:06;5.30;;;1.90;;
68438;SDS011;55421;51.600;5.718;2023-04-25T09:56:06;2.30;;;1.10;;
68438;SDS011;55421;51.600;5.718;2023-04-25T09:58:35;3.40;;;1.40;;
68438;SDS011;55421;51.600;5.718;2023-04-25T10:01:06;2.00;;;1.40;;
68438;SDS011;55421;51.600;5.718;2023-04-25T10:03:37;3.60;;;1.80;;
68438;SDS011;55421;51.600;5.718;2023-04-25T10:06:08;3.40;;;1.40;;
68438;SDS011;55421;51.600;5.718;2023-04-25T10:08:38;3.00;;;1.10;;
68438;SDS011;55421;51.600;5.718;2023-04-25T10:11:07;6.30;;;1.60;;
68438;SDS011;55421;51.600;5.718;2023-04-25T10:13:35;3.70;;;1.30;;
68438;SDS011;55421;51.600;5.718;2023-04-25T10:16:04;2.10;;;1.60;;
68438;SDS011;55421;51.600;5.718;2023-04-25T10:18:32;1.30;;;1.20;;
68438;SDS011;55421;51.600;5.718;2023-04-25T10:21:04;1.60;;;1.50;;
68438;SDS011;55421;51.600;5.718;2023-04-25T10:23:32;2.40;;;1.50;;
68438;SDS011;55421;51.600;5.718;2023-04-25T10:26:01;6.10;;;1.50;;
68438;SDS011;55421;51.600;5.718;2023-04-25T10:28:28;1.90;;;1.60;;
68438;SDS011;55421;51.600;5.718;2023-04-25T10:31:02;4.40;;;1.50;;
68438;SDS011;55421;51.600;5.718;2023-04-25T10:33:40;6.40;;;2.20;;
68438;SDS011;55421;51.600;5.718;2023-04-25T10:36:18;3.00;;;1.40;;
68438;SDS011;55421;51.600;5.718;2023-04-25T10:38:48;6.00;;;2.20;;
68438;SDS011;55421;51.600;5.718;2023-04-25T10:41:20;3.90;;;1.90;;
68438;SDS011;55421;51.600;5.718;2023-04-25T10:43:49;8.70;;;2.40;;
68438;SDS011;55421;51.600;5.718;2023-04-25T10:46:28;3.60;;;1.80;;
68438;SDS011;55421;51.600;5.718;2023-04-25T10:48:59;3.70;;;1.60;;
68438;SDS011;55421;51.600;5.718;2023-04-25T10:51:29;3.80;;;1.40;;
68438;SDS011;55421;51.600;5.718;2023-04-25T10:54:05;6.70;;;1.80;;
68438;SDS011;55421;51.600;5.718;2023-04-25T10:56:37;5.80;;;1.90;;
68438;SDS011;55421;51.600;5.718;2023-04-25T10:59:08;7.90;;;2.00;;
68438;SDS011;55421;51.600;5.718;2023-04-25T11:01:44;4.20;;;1.50;;
68438;SDS011;55421;51.600;5.718;2023-04-25T11:04:23;3.90;;;1.70;;
68438;SDS011;55421;51.600;5.718;2023-04-25T11:07:16;6.60;;;1.50;;
68438;SDS011;55421;51.600;5.718;2023-04-25T11:09:49;4.20;;;1.30;;
68438;SDS011;55421;51.600;5.718;2023-04-25T11:12:16;5.80;;;1.20;;
68438;SDS011;55421;51.600;5.718;2023-04-25T11:14:43;4.20;;;1.10;;
68438;SDS011;55421;51.600;5.718;2023-04-25T11:17:10;2.60;;;1.00;;
68438;SDS011;55421;51.600;5.718;2023-04-25T11:19:37;3.30;;;1.50;;
68438;SDS011;55421;51.600;5.718;2023-04-25T11:22:03;3.20;;;0.90;;
68438;SDS011;55421;51.600;5.718;2023-04-25T11:24:34;4.80;;;1.20;;
68438;SDS011;55421;51.600;5.718;2023-04-25T11:27:03;2.20;;;0.90;;
68438;SDS011;55421;51.600;5.718;2023-04-25T11:29:33;4.30;;;1.10;;
68438;SDS011;55421;51.600;5.718;2023-04-25T11:32:01;6.60;;;1.70;;
68438;SDS011;55421;51.600;5.718;2023-04-25T11:34:30;2.00;;;1.10;;
68438;SDS011;55421;51.600;5.718;2023-04-25T11:36:57;1.80;;;1.20;;
68438;SDS011;55421;51.600;5.718;2023-04-25T11:39:25;7.00;;;1.50;;
68438;SDS011;55421;51.600;5.718;2023-04-25T11:41:55;1.30;;;1.20;;
68438;SDS011;55421;51.600;5.718;2023-04-25T11:44:22;5.50;;;1.50;;
68438;SDS011;55421;51.600;5.718;2023-04-25T11:46:48;2.20;;;1.10;;
68438;SDS011;55421;51.600;5.718;2023-04-25T11:49:15;7.70;;;1.60;;
68438;SDS011;55421;51.600;5.718;2023-04-25T11:51:46;8.80;;;2.10;;
68438;SDS011;55421;51.600;5.718;2023-04-25T11:54:14;3.00;;;1.40;;
68438;SDS011;55421;51.600;5.718;2023-04-25T11:56:45;6.20;;;1.30;;
68438;SDS011;55421;51.600;5.718;2023-04-25T11:59:12;5.80;;;1.80;;
68438;SDS011;55421;51.600;5.718;2023-04-25T12:01:41;5.30;;;1.80;;
68438;SDS011;55421;51.600;5.718;2023-04-25T12:04:25;6.30;;;1.40;;
68438;SDS011;55421;51.600;5.718;2023-04-25T12:06:53;3.70;;;1.50;;
68438;SDS011;55421;51.600;5.718;2023-04-25T12:09:32;2.20;;;1.20;;
68438;SDS011;55421;51.600;5.718;2023-04-25T12:12:00;1.30;;;0.80;;
68438;SDS011;55421;51.600;5.718;2023-04-25T12:14:34;2.70;;;1.20;;
68438;SDS011;55421;51.600;5.718;2023-04-25T12:17:03;5.00;;;1.30;;
68438;SDS011;55421;51.600;5.718;2023-04-25T12:19:33;7.40;;;1.60;;
68438;SDS011;55421;51.600;5.718;2023-04-25T12:22:02;8.10;;;1.50;;
68438;SDS011;55421;51.600;5.718;2023-04-25T12:24:29;2.30;;;1.10;;
68438;SDS011;55421;51.600;5.718;2023-04-25T12:27:02;0.80;;;0.80;;
68438;SDS011;55421;51.600;5.718;2023-04-25T12:29:34;3.30;;;0.80;;
68438;SDS011;55421;51.600;5.718;2023-04-25T12:32:01;0.60;;;0.60;;
68438;SDS011;55421;51.600;5.718;2023-04-25T12:34:28;2.10;;;0.90;;
68438;SDS011;55421;51.600;5.718;2023-04-25T12:36:54;2.70;;;0.80;;
68438;SDS011;55421;51.600;5.718;2023-04-25T12:39:24;1.80;;;0.70;;
68438;SDS011;55421;51.600;5.718;2023-04-25T12:41:52;2.00;;;0.90;;
68438;SDS011;55421;51.600;5.718;2023-04-25T12:44:22;2.90;;;1.10;;
68438;SDS011;55421;51.600;5.718;2023-04-25T12:46:48;1.40;;;0.80;;
68438;SDS011;55421;51.600;5.718;2023-04-25T12:49:16;2.70;;;0.80;;
68438;SDS011;55421;51.600;5.718;2023-04-25T12:51:42;3.00;;;1.20;;
68438;SDS011;55421;51.600;5.718;2023-04-25T12:54:09;2.00;;;0.90;;
68438;SDS011;55421;51.600;5.718;2023-04-25T12:56:36;2.90;;;1.10;;
68438;SDS011;55421;51.600;5.718;2023-04-25T12:59:03;4.80;;;0.80;;
68438;SDS011;55421;51.600;5.718;2023-04-25T13:01:30;2.30;;;0.90;;
68438;SDS011;55421;51.600;5.718;2023-04-25T13:03:56;3.30;;;1.30;;
68438;SDS011;55421;51.600;5.718;2023-04-25T13:06:23;5.50;;;1.10;;
68438;SDS011;55421;51.600;5.718;2023-04-25T13:08:50;3.30;;;1.40;;
68438;SDS011;55421;51.600;5.718;2023-04-25T13:11:16;4.10;;;1.20;;
68438;SDS011;55421;51.600;5.718;2023-04-25T13:13:43;6.30;;;1.90;;
68438;SDS011;55421;51.600;5.718;2023-04-25T13:16:10;3.30;;;1.30;;
68438;SDS011;55421;51.600;5.718;2023-04-25T13:18:40;3.70;;;1.30;;
68438;SDS011;55421;51.600;5.718;2023-04-25T13:21:08;4.00;;;1.20;;
68438;SDS011;55421;51.600;5.718;2023-04-25T13:23:37;3.70;;;1.20;;
68438;SDS011;55421;51.600;5.718;2023-04-25T13:26:03;4.10;;;1.40;;
68438;SDS011;55421;51.600;5.718;2023-04-25T13:28:33;5.50;;;1.40;;
68438;SDS011;55421;51.600;5.718;2023-04-25T13:30:59;3.70;;;1.20;;
68438;SDS011;55421;51.600;5.718;2023-04-25T13:33:26;2.60;;;1.10;;
68438;SDS011;55421;51.600;5.718;2023-04-25T13:35:53;1.70;;;1.10;;
68438;SDS011;55421;51.600;5.718;2023-04-25T13:38:22;5.50;;;1.60;;
68438;SDS011;55421;51.600;5.718;2023-04-25T13:40:50;6.50;;;1.60;;
68438;SDS011;55421;51.600;5.718;2023-04-25T13:43:22;4.00;;;1.00;;
68438;SDS011;55421;51.600;5.718;2023-04-25T13:45:49;2.30;;;1.20;;
68438;SDS011;55421;51.600;5.718;2023-04-25T13:48:18;6.00;;;1.50;;
68438;SDS011;55421;51.600;5.718;2023-04-25T13:50:44;4.40;;;1.30;;
68438;SDS011;55421;51.600;5.718;2023-04-25T13:53:11;4.00;;;1.30;;
68438;SDS011;55421;51.600;5.718;2023-04-25T13:55:38;2.60;;;1.30;;
68438;SDS011;55421;51.600;5.718;2023-04-25T13:58:05;7.30;;;1.50;;
68438;SDS011;55421;51.600;5.718;2023-04-25T14:00:37;4.70;;;1.30;;
68438;SDS011;55421;51.600;5.718;2023-04-25T14:03:05;3.10;;;1.10;;
68438;SDS011;55421;51.600;5.718;2023-04-25T14:05:34;2.60;;;1.20;;
68438;SDS011;55421;51.600;5.718;2023-04-25T14:08:06;3.40;;;1.60;;
68438;SDS011;55421;51.600;5.718;2023-04-25T14:10:34;5.60;;;1.50;;
68438;SDS011;55421;51.600;5.718;2023-04-25T14:13:02;6.80;;;1.30;;
68438;SDS011;55421;51.600;5.718;2023-04-25T14:15:33;2.70;;;1.30;;
68438;SDS011;55421;51.600;5.718;2023-04-25T14:18:01;4.30;;;1.20;;
68438;SDS011;55421;51.600;5.718;2023-04-25T14:20:28;3.20;;;1.00;;
68438;SDS011;55421;51.600;5.718;2023-04-25T14:22:55;2.20;;;1.10;;
68438;SDS011;55421;51.600;5.718;2023-04-25T14:25:24;3.50;;;1.10;;
68438;SDS011;55421;51.600;5.718;2023-04-25T14:27:51;2.60;;;0.90;;
68438;SDS011;55421;51.600;5.718;2023-04-25T14:30:19;2.30;;;1.00;;
68438;SDS011;55421;51.600;5.718;2023-04-25T14:32:47;4.00;;;1.20;;
68438;SDS011;55421;51.600;5.718;2023-04-25T14:35:17;3.10;;;1.10;;
68438;SDS011;55421;51.600;5.718;2023-04-25T14:37:44;3.80;;;1.30;;
68438;SDS011;55421;51.600;5.718;2023-04-25T14:40:11;5.90;;;1.20;;
68438;SDS011;55421;51.600;5.718;2023-04-25T14:42:39;5.80;;;1.20;;
68438;SDS011;55421;51.600;5.718;2023-04-25T14:45:07;4.80;;;1.40;;
68438;SDS011;55421;51.600;5.718;2023-04-25T14:47:36;3.70;;;1.30;;
68438;SDS011;55421;51.600;5.718;2023-04-25T14:50:04;5.90;;;1.30;;